Flight Track Log - Related Links

Times and Time Zones

All times are in EDT time to prevent confusion due to time zone crossing. See the IBE4474 flight status page for this flight to view local times or setup timezone preferences in your user account.

Time Position Orientation Groundspeed Altitude Reporting Facility
EDT Latitude Longitude Course Direction KTS MPH feet Rate Location/Type
Sun 08:59:00 PM 30.3136 -81.6317 165° South  Level Estimated
Sun 09:00:00 PM 30.2234 -81.6037 165° South  Level Estimated
Sun 09:01:00 PM 30.1331 -81.5758 165° South  Level Estimated
Sun 09:02:00 PM 30.0429 -81.5479 165° South  Level Estimated
Sun 09:03:00 PM 29.9526 -81.5201 165° South  Level Estimated
Sun 09:04:00 PM 29.8624 -81.4923 165° South  Level Estimated
Sun 09:05:00 PM 29.7721 -81.4645 165° South  Level Estimated
Sun 09:06:00 PM 29.6818 -81.4369 165° South  Level Estimated
Sun 09:07:00 PM 29.5915 -81.4092 165° South  Level Estimated
Sun 09:08:00 PM 29.5012 -81.3816 165° South  Level Estimated
Sun 09:09:00 PM 29.4110 -81.3541 165° South  Level Estimated
Sun 09:10:00 PM 29.3207 -81.3266 165° South  Level Estimated
Sun 09:11:00 PM 29.2304 -81.2992 165° South  Level Estimated
Sun 09:12:00 PM 29.1401 -81.2718 165° South  Level Estimated
Sun 09:13:00 PM 29.0497 -81.2444 165° South  Level Estimated
Sun 09:14:00 PM 28.9594 -81.2171 165° South  Level Estimated
Sun 09:15:00 PM 28.8691 -81.1899 165° South  Level Estimated
Sun 09:16:00 PM 28.7788 -81.1627 165° South  Level Estimated
Sun 09:17:00 PM 28.6884 -81.1355 165° South  Level Estimated
Sun 09:18:00 PM 28.5981 -81.1084 165° South  Level Estimated
Sun 09:19:00 PM 28.5078 -81.0814 165° South  Level Estimated
Sun 09:20:00 PM 28.4174 -81.0544 165° South  Level Estimated
Sun 09:21:00 PM 28.3271 -81.0274 165° South  Level Estimated
Sun 09:22:00 PM 28.2367 -81.0005 165° South  Level Estimated
Sun 09:23:00 PM 28.1463 -80.9736 165° South  Level Estimated
Sun 09:24:00 PM 28.0560 -80.9468 165° South  Level Estimated
Sun 09:25:00 PM 27.9656 -80.9200 165° South  Level Estimated
Sun 09:26:00 PM 27.8752 -80.8932 165° South  Level Estimated
Sun 09:27:00 PM 27.7848 -80.8665 165° South  Level Estimated
Sun 09:28:00 PM 27.6944 -80.8399 165° South  Level Estimated
Sun 09:29:00 PM 27.6040 -80.8133 165° South  Level Estimated
Sun 09:30:00 PM 27.5136 -80.7867 165° South  Level Estimated
Sun 09:31:00 PM 27.4232 -80.7602 165° South  Level Estimated
Sun 09:32:00 PM 27.3328 -80.7337 165° South  Level Estimated
Sun 09:33:00 PM 27.2424 -80.7073 165° South  Level Estimated
Sun 09:34:00 PM 27.1520 -80.6809 165° South  Level Estimated
Sun 09:35:00 PM 27.0615 -80.6545 165° South  Level Estimated
Sun 09:36:00 PM 26.9711 -80.6282 165° South  Level Estimated
Sun 09:37:00 PM 26.8807 -80.6020 165° South  Level Estimated
Sun 09:38:00 PM 26.7902 -80.5758 165° South  Level Estimated
Sun 09:39:00 PM 26.6998 -80.5496 166° South  Level Estimated
Sun 09:40:00 PM 26.6093 -80.5234 166° South  Level Estimated
Sun 09:41:00 PM 26.5189 -80.4973 166° South  Level Estimated
Sun 09:42:00 PM 26.4284 -80.4713 166° South  Level Estimated
Sun 09:43:00 PM 26.3380 -80.4453 166° South  Level Estimated
Sun 09:44:00 PM 26.2475 -80.4193 166° South  Level Estimated
Sun 09:45:00 PM 26.1570 -80.3934 166° South  Level Estimated
Sun 09:46:00 PM 26.0665 -80.3675 166° South  Level Estimated
Sun 09:47:00 PM 25.9760 -80.3416 166° South  Level Estimated

Login

Don't have an account? Register now (free) for customized features, flight alerts, and more!